Time;durP1;ratioP1;P1;durP2;ratioP2;P2;SDS_P1;SDS_P2;PMS_P1;PMS_P2;Temp;Humidity;BMP_temperature;BMP_pressure;BME280_temperature;BME280_humidity;BME280_pressure;Samples;Min_cycle;Max_cycle;Signal;HPM_P1;HPM_P2
2023/12/26 00:01:24;;;;;;;3.85;2.72;;;9.10;99.90;;;9.99;75.54;97664.88;10490098;28;20730;-70
2023/12/26 00:06:27;;;;;;;4.15;2.30;;;9.10;99.90;;;9.85;75.52;97658.13;10423089;28;20948;-70
2023/12/26 00:11:30;;;;;;;3.72;2.33;;;9.00;99.90;;;9.82;75.67;97646.06;10415281;28;20226;-70
2023/12/26 00:16:35;;;;;;;3.80;2.10;;;9.00;99.90;;;10.06;73.97;97649.09;10447616;28;20224;-70
2023/12/26 00:21:39;;;;;;;4.25;2.08;;;9.10;99.90;;;9.79;76.42;97642.47;10481075;28;20238;-70
2023/12/26 00:26:43;;;;;;;3.05;2.30;;;8.90;99.90;;;9.91;75.73;97630.38;10491548;28;20613;-70
2023/12/26 00:31:47;;;;;;;2.30;2.10;;;8.70;99.90;;;9.72;75.48;97622.47;10492704;28;20594;-70
2023/12/26 00:36:50;;;;;;;4.25;2.72;;;8.80;99.90;;;9.39;76.94;97623.22;10490170;28;21760;-70
2023/12/26 00:41:54;;;;;;;2.67;2.47;;;8.50;99.90;;;9.32;77.69;97615.97;10492058;28;20234;-71
2023/12/26 00:46:58;;;;;;;3.47;2.50;;;8.40;99.90;;;9.16;79.10;97631.19;10491522;28;20227;-69
2023/12/26 00:52:01;;;;;;;3.28;2.28;;;8.20;99.90;;;9.17;78.61;97635.50;10426057;28;20599;-69
2023/12/26 00:57:05;;;;;;;2.80;2.50;;;8.40;99.90;;;9.08;79.75;97640.94;10489124;28;20228;-70
2023/12/26 01:02:10;;;;;;;2.83;2.63;;;8.10;99.90;;;9.07;80.99;97633.19;10465671;28;20230;-71
2023/12/26 01:07:13;;;;;;;4.00;2.50;;;8.10;99.90;;;9.05;80.86;97635.66;10417036;28;20226;-69
2023/12/26 01:12:16;;;;;;;2.47;2.27;;;8.30;99.90;;;8.93;81.50;97640.91;10489526;28;20220;-70
2023/12/26 01:17:20;;;;;;;4.57;2.33;;;8.20;99.90;;;8.79;81.79;97650.28;10493569;28;20228;-69
2023/12/26 01:22:24;;;;;;;2.63;2.43;;;8.20;99.90;;;8.96;80.89;97637.66;10500585;28;20223;-70
2023/12/26 01:27:27;;;;;;;2.73;2.60;;;8.40;99.90;;;8.94;81.60;97649.44;10503198;28;20327;-71
2023/12/26 01:32:32;;;;;;;3.03;2.70;;;8.30;99.90;;;8.85;82.47;97651.44;10493031;28;20594;-69
2023/12/26 01:37:36;;;;;;;2.33;2.13;;;8.20;99.90;;;8.97;81.84;97653.03;10496914;28;20235;-71
2023/12/26 01:42:41;;;;;;;3.13;2.47;;;8.20;99.90;;;8.98;81.22;97654.78;10496155;28;20232;-70
2023/12/26 01:47:50;;;;;;;3.23;2.60;;;8.40;99.90;;;8.90;81.70;97661.13;10497986;28;20266;-70
2023/12/26 01:52:53;;;;;;;3.13;2.63;;;8.30;99.90;;;9.00;80.26;97676.16;10491520;28;20220;-70
2023/12/26 01:57:58;;;;;;;4.40;2.60;;;8.40;99.90;;;8.95;81.27;97680.09;10496602;28;20767;-69
2023/12/26 02:03:03;;;;;;;3.67;2.30;;;8.40;99.90;;;8.91;81.63;97690.91;10421428;28;20236;-70
2023/12/26 02:08:08;;;;;;;4.80;2.70;;;8.10;99.90;;;8.74;82.70;97691.56;10415219;28;20308;-69
2023/12/26 02:13:21;;;;;;;3.17;2.70;;;8.00;99.90;;;8.67;82.80;97691.94;10427393;28;20315;-70
2023/12/26 02:18:27;;;;;;;2.93;2.60;;;7.90;99.90;;;8.71;82.73;97691.38;10484344;28;20229;-68
2023/12/26 02:23:32;;;;;;;4.40;2.93;;;7.90;99.90;;;8.56;84.06;97692.19;10492158;28;20228;-71
2023/12/26 02:28:38;;;;;;;2.77;2.57;;;7.80;99.90;;;8.56;84.18;97689.63;10433259;28;20243;-69
2023/12/26 02:33:41;;;;;;;2.85;2.65;;;7.80;99.90;;;8.66;83.66;97696.16;10413254;28;20221;-70
2023/12/26 02:38:44;;;;;;;2.63;2.43;;;7.80;99.90;;;8.83;83.02;97691.22;10413215;28;20650;-70
2023/12/26 02:43:49;;;;;;;3.50;2.40;;;8.00;99.90;;;8.77;82.67;97689.19;10423826;28;20342;-70
2023/12/26 02:48:52;;;;;;;2.73;2.40;;;8.00;99.90;;;8.73;82.59;97694.91;10413975;28;20989;-70
2023/12/26 02:53:55;;;;;;;4.47;2.83;;;7.90;99.90;;;8.81;81.65;97701.31;10412276;28;20221;-69
2023/12/26 02:59:00;;;;;;;3.23;2.57;;;8.00;99.90;;;8.81;81.75;97714.06;10413325;28;20262;-70
2023/12/26 03:04:03;;;;;;;3.50;2.77;;;8.20;99.90;;;8.72;81.61;97716.91;10411959;28;20723;-71
2023/12/26 03:09:07;;;;;;;2.97;2.77;;;8.00;99.90;;;8.74;81.21;97722.13;10417574;28;20352;-68
2023/12/26 03:14:13;;;;;;;2.90;2.60;;;8.00;99.90;;;8.60;82.04;97723.81;10445538;28;20224;-68
2023/12/26 03:19:17;;;;;;;3.80;2.87;;;7.80;99.90;;;8.61;82.79;97727.22;10489903;28;20316;-70
2023/12/26 03:24:20;;;;;;;3.87;3.00;;;7.70;99.90;;;8.45;83.27;97721.19;10459919;28;20318;-70
2023/12/26 03:29:24;;;;;;;2.97;2.50;;;7.70;99.90;;;8.45;83.00;97733.94;10494249;28;20817;-71
2023/12/26 03:34:27;;;;;;;5.30;2.93;;;7.70;99.90;;;8.44;83.58;97723.63;10418003;28;20227;-70
2023/12/26 03:39:32;;;;;;;3.97;2.80;;;7.60;99.90;;;8.49;83.61;97728.22;10409644;28;20229;-70
2023/12/26 03:44:36;;;;;;;2.80;2.60;;;7.60;99.90;;;8.56;83.11;97732.06;10421113;28;20617;-70
2023/12/26 03:49:40;;;;;;;5.40;2.87;;;7.60;99.90;;;8.60;82.64;97740.78;10414311;28;20678;-69
2023/12/26 03:54:43;;;;;;;2.90;2.40;;;7.60;99.90;;;8.64;82.37;97746.16;10425442;28;21201;-70
2023/12/26 03:59:47;;;;;;;3.13;2.90;;;7.60;99.90;;;8.55;82.62;97743.91;10439481;28;20232;-69
2023/12/26 04:04:50;;;;;;;2.93;2.67;;;7.70;99.90;;;8.52;82.70;97737.72;10422895;28;20367;-70
2023/12/26 04:09:54;;;;;;;2.40;2.20;;;7.60;99.90;;;8.50;82.19;97744.41;10418856;28;20225;-69
2023/12/26 04:14:58;;;;;;;5.27;2.50;;;7.60;99.90;;;8.67;81.80;97745.44;10412733;28;20229;-71
2023/12/26 04:20:01;;;;;;;2.80;2.60;;;7.60;99.90;;;8.43;83.06;97743.13;10482129;28;20236;-69
2023/12/26 04:25:07;;;;;;;3.10;2.73;;;7.60;99.90;;;8.51;82.99;97734.31;10472965;28;20220;-70
2023/12/26 04:30:12;;;;;;;3.03;2.70;;;7.60;99.90;;;8.47;83.43;97739.09;10455894;28;20236;-69
2023/12/26 04:35:16;;;;;;;5.27;2.57;;;7.50;99.90;;;8.49;82.74;97737.53;10412672;28;20232;-70
2023/12/26 04:40:19;;;;;;;3.23;2.57;;;7.60;99.90;;;8.38;83.50;97735.94;10420986;28;20233;-70
2023/12/26 04:45:23;;;;;;;3.03;2.70;;;7.60;99.90;;;8.47;83.12;97739.09;10426349;28;20238;-69
2023/12/26 04:50:26;;;;;;;4.27;2.90;;;7.60;99.90;;;8.49;83.41;97748.59;10424535;28;20519;-69
2023/12/26 04:55:30;;;;;;;3.80;3.10;;;7.60;99.90;;;8.57;82.33;97747.44;10470071;28;20242;-68
2023/12/26 05:00:34;;;;;;;3.30;3.00;;;7.60;99.90;;;8.45;83.15;97751.75;10428811;28;20609;-69
2023/12/26 05:05:37;;;;;;;3.17;2.80;;;7.60;99.90;;;8.44;83.19;97754.19;10418042;28;20415;-71
2023/12/26 05:10:40;;;;;;;2.57;2.37;;;7.70;99.90;;;8.46;83.28;97752.63;10495751;28;20531;-70
2023/12/26 05:15:45;;;;;;;3.73;2.70;;;7.60;99.90;;;8.49;83.22;97763.88;10477757;28;20606;-69
2023/12/26 05:20:48;;;;;;;3.00;2.60;;;7.60;99.90;;;8.47;83.45;97772.22;10475993;28;20232;-70
2023/12/26 05:25:51;;;;;;;4.80;2.40;;;7.60;99.90;;;8.64;82.37;97776.75;10437146;28;20229;-70
2023/12/26 05:31:05;;;;;;;2.90;2.60;;;7.80;99.90;;;8.65;81.71;97775.94;10500248;28;20342;-71
2023/12/26 05:36:08;;;;;;;3.27;2.37;;;7.80;99.90;;;8.83;81.52;97766.00;10496836;28;20785;-71
2023/12/26 05:41:12;;;;;;;2.80;2.60;;;7.90;99.90;;;8.75;81.50;97777.38;10448427;28;20275;-70
2023/12/26 05:46:17;;;;;;;3.80;2.73;;;7.90;99.90;;;8.62;81.68;97785.06;10488643;28;20224;-70
2023/12/26 05:51:20;;;;;;;3.37;2.43;;;7.90;99.90;;;8.56;82.35;97786.44;10421058;28;20353;-69
2023/12/26 05:56:23;;;;;;;3.70;2.37;;;7.80;99.90;;;8.73;81.38;97792.59;10420966;28;20225;-69
2023/12/26 06:01:28;;;;;;;4.53;2.50;;;7.90;99.90;;;8.68;81.47;97790.53;10418264;28;20229;-70
2023/12/26 06:06:31;;;;;;;3.43;2.50;;;7.90;99.90;;;8.83;81.68;97803.34;10419981;28;20311;-70
2023/12/26 06:11:34;;;;;;;3.37;2.50;;;7.90;99.90;;;8.81;81.76;97803.25;10417323;28;20280;-69
2023/12/26 06:16:39;;;;;;;2.50;2.30;;;7.90;99.90;;;8.84;80.70;97800.88;10425606;28;20236;-70
2023/12/26 06:21:42;;;;;;;5.37;2.50;;;8.00;99.90;;;8.84;80.49;97803.44;10491643;28;20232;-70
2023/12/26 06:26:45;;;;;;;5.13;2.40;;;8.00;99.90;;;8.91;79.82;97814.91;10495582;28;20346;-69
2023/12/26 06:31:49;;;;;;;2.63;2.43;;;8.10;99.90;;;8.87;80.29;97808.75;10465510;28;20243;-71
2023/12/26 06:36:52;;;;;;;4.17;2.40;;;8.20;99.90;;;8.94;80.06;97820.22;10498336;28;20227;-70
2023/12/26 06:41:56;;;;;;;4.97;2.70;;;8.30;99.90;;;8.90;80.19;97815.69;10496556;28;20323;-69
2023/12/26 06:47:00;;;;;;;2.40;2.20;;;8.30;99.90;;;8.89;79.65;97822.47;10492615;28;20221;-70
2023/12/26 06:52:06;;;;;;;3.70;2.73;;;8.30;99.90;;;8.72;80.53;97830.72;10490232;28;20224;-71
2023/12/26 06:57:15;;;;;;;3.33;2.60;;;8.10;99.90;;;8.86;79.64;97851.97;10414125;28;20229;-69
2023/12/26 07:02:20;;;;;;;3.73;2.23;;;8.30;99.90;;;8.78;80.13;97848.94;10422902;28;20229;-70
2023/12/26 07:07:24;;;;;;;5.00;2.40;;;8.20;99.90;;;8.89;79.90;97845.41;10498263;28;20900;-69
2023/12/26 07:12:27;;;;;;;2.70;2.50;;;8.20;99.90;;;8.91;79.89;97848.94;10492595;28;20227;-71
2023/12/26 07:17:31;;;;;;;3.13;2.77;;;8.20;99.90;;;8.83;80.26;97867.06;10492046;28;20228;-70
2023/12/26 07:22:34;;;;;;;3.20;2.30;;;8.10;99.90;;;8.78;80.80;97865.13;10485776;28;20231;-71
2023/12/26 07:27:37;;;;;;;4.43;2.93;;;8.10;99.90;;;8.84;80.55;97863.72;10471658;28;20228;-69
2023/12/26 07:32:42;;;;;;;5.83;2.60;;;8.20;99.90;;;8.90;80.82;97875.22;10415582;28;20254;-68
2023/12/26 07:37:46;;;;;;;3.63;2.63;;;8.20;99.90;;;8.83;81.15;97888.34;10442093;28;20241;-69
2023/12/26 07:42:49;;;;;;;3.13;2.67;;;8.10;99.90;;;9.03;80.06;97893.03;10470119;28;20607;-70
2023/12/26 07:47:54;;;;;;;3.07;2.60;;;8.10;99.90;;;8.86;82.03;97921.66;10442809;28;20830;-68
2023/12/26 07:52:57;;;;;;;3.08;2.65;;;8.20;99.90;;;9.13;79.61;97924.19;10487358;28;20240;-69
2023/12/26 07:58:00;;;;;;;3.80;2.57;;;8.30;99.90;;;9.17;79.90;97933.84;10495420;28;20631;-69
2023/12/26 08:03:05;;;;;;;4.23;2.80;;;8.30;99.90;;;9.20;79.30;97939.13;10446862;28;20238;-69
2023/12/26 08:08:09;;;;;;;4.87;2.93;;;8.40;99.90;;;9.14;79.65;97936.19;10458370;28;20225;-70
2023/12/26 08:13:12;;;;;;;3.27;2.90;;;8.30;99.90;;;9.20;79.73;97939.13;10410335;28;20233;-70
2023/12/26 08:18:17;;;;;;;3.83;2.70;;;8.50;99.90;;;9.11;78.51;97941.97;10475756;28;20771;-70
2023/12/26 08:23:20;;;;;;;5.47;2.87;;;8.50;99.90;;;9.13;79.08;97947.16;10405692;28;20248;-70
2023/12/26 08:28:24;;;;;;;4.90;2.93;;;8.50;99.90;;;9.18;78.59;97945.78;10418226;28;20236;-69
2023/12/26 08:33:29;;;;;;;5.03;2.87;;;8.50;99.90;;;9.17;79.40;97957.66;10488364;28;20227;-68
2023/12/26 08:38:33;;;;;;;3.97;3.00;;;8.50;99.90;;;9.20;79.33;97956.97;10477684;28;20363;-69
2023/12/26 08:43:36;;;;;;;4.73;2.90;;;8.50;99.90;;;9.33;79.04;97967.19;10466121;28;20615;-69
2023/12/26 08:48:41;;;;;;;3.40;2.60;;;8.60;99.90;;;9.42;77.41;97974.53;10483668;28;20610;-70
2023/12/26 08:53:44;;;;;;;3.37;2.50;;;8.60;99.90;;;9.42;77.96;97972.84;10412742;28;20646;-70
2023/12/26 08:58:51;;;;;;;5.80;2.90;;;8.80;99.90;;;9.43;78.05;97986.50;10411796;28;20226;-70
2023/12/26 09:03:55;;;;;;;3.93;2.53;;;8.80;99.90;;;9.57;76.08;97995.91;10412749;28;20760;-70
2023/12/26 09:08:59;;;;;;;4.13;2.80;;;9.00;99.90;;;9.62;76.50;97997.06;10404258;28;20233;-70
2023/12/26 09:14:02;;;;;;;6.30;2.50;;;9.00;99.90;;;9.72;76.92;98011.28;10474792;28;21003;-70
2023/12/26 09:19:07;;;;;;;4.30;2.72;;;8.90;99.90;;;9.72;75.62;98020.63;10464578;28;20227;-70
2023/12/26 09:24:10;;;;;;;4.45;2.70;;;9.00;99.90;;;9.81;76.26;98027.16;10404451;28;20307;-69
2023/12/26 09:29:13;;;;;;;3.88;2.60;;;9.20;99.90;;;9.79;77.21;98027.88;10407578;28;20258;-70
2023/12/26 09:34:18;;;;;;;5.40;2.55;;;9.20;99.90;;;9.85;75.71;98036.81;10406323;28;20226;-70
2023/12/26 09:39:21;;;;;;;5.40;2.80;;;9.20;99.90;;;9.82;75.44;98039.16;10410225;28;20378;-70
2023/12/26 09:44:24;;;;;;;3.33;3.00;;;9.10;99.90;;;9.82;75.11;98044.28;10404476;28;20639;-70
2023/12/26 09:49:29;;;;;;;3.63;2.70;;;9.20;99.90;;;9.93;77.14;98045.81;10452484;28;20229;-70
2023/12/26 09:54:33;;;;;;;4.70;2.60;;;9.40;99.90;;;10.05;76.53;98048.25;10444223;28;20228;-70
2023/12/26 09:59:39;;;;;;;4.32;2.80;;;9.40;99.90;;;10.04;74.87;98051.56;10484907;28;20381;-69
2023/12/26 10:04:45;;;;;;;4.22;2.65;;;9.30;99.90;;;9.98;73.93;98052.88;10489946;28;20615;-70
2023/12/26 10:09:49;;;;;;;4.70;2.95;;;9.30;99.90;;;10.01;76.10;98060.72;10494770;28;20305;-70
2023/12/26 10:14:58;;;;;;;9.27;7.03;;;9.30;99.90;;;10.16;75.82;98074.47;10490205;28;20227;-69
2023/12/26 10:20:04;;;;;;;18.05;16.13;;;9.50;99.90;;;10.27;75.63;98064.91;10484606;28;20234;-70
2023/12/26 10:25:09;;;;;;;5.35;4.70;;;9.50;99.90;;;10.29;74.83;98073.56;10450713;28;20227;-69
2023/12/26 10:30:19;;;;;;;3.97;3.22;;;9.60;99.90;;;10.27;75.14;98064.91;10485019;28;20255;-69
2023/12/26 10:35:25;;;;;;;5.50;4.13;;;9.30;99.90;;;10.44;75.12;98065.94;10491939;28;20265;-68
2023/12/26 10:40:28;;;;;;;6.65;5.95;;;9.60;99.90;;;10.62;73.34;98064.53;10491818;28;20224;-68
2023/12/26 10:45:33;;;;;;;3.70;3.03;;;9.80;99.90;;;10.57;72.95;98073.59;10491225;28;20234;-71
2023/12/26 10:50:38;;;;;;;20.42;16.67;;;9.90;99.90;;;10.55;73.64;98062.38;10483793;28;20256;-71
2023/12/26 10:55:45;;;;;;;4.15;3.70;;;9.80;99.90;;;10.59;72.21;98059.22;10431345;28;20232;-71
2023/12/26 11:00:50;;;;;;;4.43;3.72;;;9.80;99.90;;;10.53;73.10;98063.94;10474420;28;21126;-69
2023/12/26 11:05:55;;;;;;;10.35;6.28;;;9.60;99.90;;;10.24;73.57;98057.91;10464907;28;20236;-70
2023/12/26 11:10:58;;;;;;;6.68;5.75;;;9.40;99.90;;;10.36;73.87;98063.84;10454413;28;20221;-70
2023/12/26 11:16:02;;;;;;;5.00;4.57;;;9.70;99.90;;;10.35;74.62;98069.72;10457053;28;20303;-70
2023/12/26 11:21:07;;;;;;;6.63;2.90;;;9.60;99.90;;;10.19;75.67;98073.75;10456247;28;20649;-70
2023/12/26 11:26:11;;;;;;;4.45;3.30;;;9.30;99.90;;;10.29;75.50;98084.66;10478544;28;20223;-70
2023/12/26 11:31:15;;;;;;;4.38;3.58;;;9.50;99.90;;;10.15;76.44;98085.44;10462390;28;20229;-69
2023/12/26 11:36:19;;;;;;;4.60;3.08;;;9.30;99.90;;;10.28;75.56;98084.59;10457268;28;20228;-71
2023/12/26 11:41:22;;;;;;;7.63;3.78;;;9.40;99.90;;;10.37;76.01;98082.59;10464143;28;20228;-71
2023/12/26 11:46:26;;;;;;;4.70;3.03;;;9.50;99.90;;;10.35;74.15;98074.81;10462309;28;20347;-69
2023/12/26 11:51:30;;;;;;;4.82;3.00;;;9.60;99.90;;;10.38;76.17;98074.13;10458577;28;20221;-70
2023/12/26 11:56:33;;;;;;;4.07;3.25;;;9.60;99.90;;;10.36;75.98;98074.06;10468232;28;20738;-70
2023/12/26 12:01:37;;;;;;;4.28;3.15;;;9.50;99.90;;;10.47;74.45;98079.81;10485243;28;20235;-69
2023/12/26 12:07:10;;;;;;;5.30;2.70;;;9.60;99.90;;;10.31;75.54;98078.00;10461450;28;20489;-69
2023/12/26 12:12:16;;;;;;;4.18;2.78;;;9.50;99.90;;;10.38;75.45;98076.69;10450493;28;20613;-71
2023/12/26 12:17:20;;;;;;;4.53;2.85;;;9.60;99.90;;;10.30;76.34;98073.69;10450319;28;20224;-69
2023/12/26 12:22:26;;;;;;;2.95;2.65;;;9.50;99.90;;;10.40;77.25;98064.00;10441985;28;20228;-70
2023/12/26 12:27:29;;;;;;;3.20;2.90;;;9.40;99.90;;;10.48;76.91;98060.25;10490292;28;20256;-69
2023/12/26 12:32:33;;;;;;;4.28;3.10;;;9.50;99.90;;;10.32;77.87;98064.41;10468565;28;20225;-69
2023/12/26 12:37:38;;;;;;;3.38;3.03;;;9.40;99.90;;;10.45;76.81;98070.28;10449456;28;21619;-69
2023/12/26 12:42:42;;;;;;;3.20;2.90;;;9.60;99.90;;;10.42;78.50;98071.00;10487845;28;20712;-69
2023/12/26 12:47:46;;;;;;;3.22;2.78;;;9.50;99.90;;;10.45;76.62;98060.06;10445538;28;20320;-70
2023/12/26 12:52:50;;;;;;;4.63;2.40;;;9.70;99.90;;;10.76;76.54;98071.34;10467386;28;20228;-69
2023/12/26 12:57:57;;;;;;;4.50;2.50;;;9.90;99.90;;;10.58;77.25;98065.13;10463264;28;20234;-70
2023/12/26 13:03:00;;;;;;;2.80;2.47;;;9.80;99.90;;;10.75;76.11;98056.78;10462644;28;20799;-69
2023/12/26 13:08:05;;;;;;;2.53;2.28;;;9.90;99.90;;;10.66;77.22;98060.47;10465047;28;20278;-71
2023/12/26 13:13:08;;;;;;;2.03;1.92;;;10.00;99.90;;;10.70;77.43;98082.84;10463326;28;20308;-69
2023/12/26 13:18:11;;;;;;;2.38;1.92;;;9.90;99.90;;;10.81;77.52;98077.59;10478914;28;20240;-70
2023/12/26 13:23:16;;;;;;;2.47;1.85;;;9.90;99.90;;;10.96;76.45;98072.53;10456224;28;20311;-69
2023/12/26 13:28:19;;;;;;;3.33;1.90;;;10.00;99.90;;;10.78;77.35;98076.53;10474886;28;20716;-70
2023/12/26 13:33:22;;;;;;;2.05;1.85;;;9.90;99.90;;;10.77;77.74;98092.69;10459287;28;20236;-69
2023/12/26 13:38:27;;;;;;;2.47;2.28;;;9.90;99.90;;;10.76;77.73;98096.91;10436797;28;20232;-69
2023/12/26 13:43:30;;;;;;;2.15;1.75;;;9.90;99.90;;;10.72;77.64;98094.06;10441310;28;20308;-70
2023/12/26 13:48:38;;;;;;;2.00;1.90;;;9.80;99.90;;;10.80;76.81;98101.41;10480063;28;20315;-70
2023/12/26 13:53:43;;;;;;;2.45;1.88;;;9.90;99.90;;;10.55;78.18;98099.03;10474845;28;20708;-70
2023/12/26 13:58:46;;;;;;;2.28;2.08;;;9.80;99.90;;;10.60;79.11;98107.00;10475832;28;20227;-69
2023/12/26 14:03:50;;;;;;;1.90;1.58;;;9.70;99.90;;;10.70;78.46;98109.34;10487439;28;20311;-69
2023/12/26 14:08:55;;;;;;;2.10;1.88;;;9.80;99.90;;;10.90;79.20;98099.38;10478950;28;20234;-70
2023/12/26 14:13:58;;;;;;;2.22;2.03;;;10.00;99.90;;;10.78;80.47;98105.53;10489010;28;20273;-70
2023/12/26 14:19:02;;;;;;;1.88;1.77;;;10.00;99.90;;;10.60;83.41;98127.44;10484294;28;20231;-69
2023/12/26 14:24:07;;;;;;;2.03;1.88;;;9.70;99.90;;;10.47;84.11;98130.94;10468197;28;20240;-70
2023/12/26 14:29:10;;;;;;;2.00;1.90;;;9.70;99.90;;;10.37;86.40;98132.03;10453524;28;20719;-70
2023/12/26 14:34:15;;;;;;;2.35;2.15;;;9.50;99.90;;;10.42;87.79;98139.09;10470596;28;20313;-69
2023/12/26 14:39:20;;;;;;;2.00;1.80;;;9.50;99.90;;;10.41;86.95;98132.19;10469695;28;20657;-69
2023/12/26 14:44:23;;;;;;;3.33;2.55;;;9.40;99.90;;;10.30;87.62;98155.44;10440446;28;20648;-69
2023/12/26 14:49:26;;;;;;;2.83;2.65;;;9.30;99.90;;;10.15;87.62;98155.28;10491206;28;20644;-70
2023/12/26 14:54:31;;;;;;;2.50;2.40;;;9.20;99.90;;;10.11;88.57;98155.03;10457821;28;20252;-70
2023/12/26 14:59:34;;;;;;;2.35;2.25;;;9.30;99.90;;;10.14;86.67;98160.31;10468245;28;20297;-70
2023/12/26 15:04:37;;;;;;;2.90;2.70;;;9.20;99.90;;;10.14;86.47;98167.97;10488794;28;20747;-70
2023/12/26 15:09:42;;;;;;;2.47;2.30;;;9.30;99.90;;;10.10;84.67;98178.78;10469222;28;20240;-70
2023/12/26 15:14:46;;;;;;;2.30;2.20;;;9.30;99.90;;;10.19;84.67;98158.94;10415372;28;20317;-69
2023/12/26 15:19:52;;;;;;;3.97;2.47;;;9.30;99.90;;;10.40;83.34;98172.22;10415506;28;20616;-70
2023/12/26 15:24:56;;;;;;;2.35;2.25;;;9.40;99.90;;;10.23;82.96;98172.78;10429228;28;20738;-71
2023/12/26 15:30:00;;;;;;;1.90;1.80;;;9.40;99.90;;;10.46;83.13;98176.81;10431153;28;20237;-70
2023/12/26 15:35:04;;;;;;;3.97;2.17;;;9.50;99.90;;;10.47;81.77;98186.25;10479239;28;20651;-69
2023/12/26 15:40:09;;;;;;;2.95;2.60;;;9.60;99.90;;;10.45;81.92;98192.97;10470875;28;20240;-69
2023/12/26 15:45:13;;;;;;;3.53;2.72;;;9.50;99.90;;;10.37;82.92;98195.00;10487038;28;20708;-69
2023/12/26 15:50:16;;;;;;;2.75;2.55;;;9.50;99.90;;;10.32;83.14;98212.59;10475925;28;20712;-71
2023/12/26 15:55:22;;;;;;;2.63;2.40;;;9.40;99.90;;;10.17;84.60;98226.91;10464973;28;20300;-70
2023/12/26 16:00:25;;;;;;;4.38;3.80;;;9.30;99.90;;;10.26;84.33;98227.50;10429791;28;20312;-70
2023/12/26 16:05:28;;;;;;;3.55;3.25;;;9.40;99.90;;;10.22;83.48;98228.13;10466519;28;20224;-71
2023/12/26 16:10:33;;;;;;;4.32;3.35;;;9.40;99.90;;;10.26;84.54;98232.63;10479504;28;20232;-70
2023/12/26 16:15:36;;;;;;;2.92;2.60;;;9.30;99.90;;;10.34;82.87;98241.69;10477216;28;20224;-70
2023/12/26 16:20:39;;;;;;;2.70;2.50;;;9.40;99.90;;;10.42;82.61;98254.09;10479325;28;20219;-70
2023/12/26 16:25:43;;;;;;;2.70;2.50;;;9.50;99.90;;;10.16;84.80;98255.81;10481185;28;20236;-70
2023/12/26 16:30:47;;;;;;;3.17;2.88;;;9.30;99.90;;;10.04;85.91;98275.44;10474246;28;20473;-70
2023/12/26 16:35:50;;;;;;;3.60;2.97;;;9.30;99.90;;;9.92;87.00;98276.38;10488533;28;20227;-70
2023/12/26 16:40:56;;;;;;;3.03;2.72;;;9.20;99.90;;;9.90;87.62;98283.09;10482595;28;20224;-70
2023/12/26 16:46:00;;;;;;;2.85;2.65;;;9.10;99.90;;;9.67;90.00;98278.09;10484769;28;20234;-70
2023/12/26 16:51:06;;;;;;;3.58;3.15;;;9.10;99.90;;;9.56;90.80;98284.16;10457819;28;20295;-69
2023/12/26 16:56:12;;;;;;;3.50;3.20;;;9.00;99.90;;;9.47;93.04;98300.63;10478671;28;20680;-70
2023/12/26 17:01:15;;;;;;;3.85;3.55;;;8.90;99.90;;;9.40;95.65;98303.50;10477373;28;20700;-70
2023/12/26 17:06:18;;;;;;;5.03;4.63;;;8.80;99.90;;;9.27;97.02;98308.56;10461989;28;20608;-70
2023/12/26 17:11:23;;;;;;;6.25;5.63;;;8.70;99.90;;;9.23;98.37;98309.13;10444238;28;20739;-69
2023/12/26 17:16:27;;;;;;;6.88;6.28;;;8.60;99.90;;;9.12;99.23;98312.59;10462686;28;20303;-69
2023/12/26 17:21:30;;;;;;;5.75;4.10;;;8.50;99.90;;;9.10;100.00;98302.28;10442233;28;20371;-69
2023/12/26 17:26:34;;;;;;;3.70;3.40;;;8.50;99.90;;;9.12;100.00;98312.59;10479997;28;20759;-69
2023/12/26 17:31:38;;;;;;;3.63;3.33;;;8.50;99.90;;;8.93;100.00;98306.22;10458044;28;20323;-69
2023/12/26 17:36:41;;;;;;;9.07;8.00;;;8.40;99.90;;;8.96;100.00;98303.00;10484361;28;20223;-69
2023/12/26 17:41:46;;;;;;;6.35;5.75;;;8.30;99.90;;;8.87;100.00;98328.72;10502121;28;20882;-68
2023/12/26 17:46:50;;;;;;;7.50;5.72;;;8.30;99.90;;;8.84;100.00;98332.69;10497152;28;20236;-67
2023/12/26 17:51:53;;;;;;;6.73;5.33;;;8.20;99.90;;;8.74;100.00;98339.69;10492886;28;20239;-68
2023/12/26 17:56:58;;;;;;;5.43;4.93;;;8.20;99.90;;;8.65;100.00;98343.25;10428218;28;20271;-70
2023/12/26 18:02:01;;;;;;;6.63;5.88;;;8.20;99.90;;;8.70;100.00;98345.34;10497909;28;20255;-70
2023/12/26 18:07:05;;;;;;;5.20;4.80;;;8.20;99.90;;;8.72;100.00;98359.06;10496720;28;20282;-70
2023/12/26 18:12:10;;;;;;;4.60;4.20;;;8.20;99.90;;;8.79;100.00;98360.41;10459850;28;20314;-70
2023/12/26 18:17:13;;;;;;;16.43;14.43;;;8.20;99.90;;;8.79;100.00;98375.72;10487454;28;20269;-70
2023/12/26 18:22:17;;;;;;;12.17;9.73;;;8.20;99.90;;;8.72;100.00;98391.31;10489075;28;20224;-70
2023/12/26 18:27:21;;;;;;;27.00;17.27;;;8.20;99.90;;;8.93;100.00;98385.22;10480928;28;20235;-69
2023/12/26 18:32:24;;;;;;;22.55;14.13;;;8.30;99.90;;;9.08;100.00;98389.66;10489314;28;20323;-70
2023/12/26 18:37:28;;;;;;;24.00;17.73;;;8.30;99.90;;;8.88;100.00;98390.78;10488343;28;20228;-69
2023/12/26 18:42:32;;;;;;;17.30;13.57;;;8.20;99.90;;;8.76;100.00;98393.34;10485837;28;20673;-68
2023/12/26 18:47:35;;;;;;;11.93;10.63;;;8.10;99.90;;;8.61;100.00;98393.06;10426559;28;20465;-69
2023/12/26 18:52:38;;;;;;;7.30;5.70;;;8.10;99.90;;;8.54;100.00;98399.41;10472249;28;20578;-69
2023/12/26 18:57:43;;;;;;;5.23;4.83;;;8.00;99.90;;;8.52;100.00;98395.84;10416476;28;20243;-69
2023/12/26 19:02:46;;;;;;;6.07;5.35;;;8.00;99.90;;;8.52;100.00;98398.38;10413545;28;20227;-69
2023/12/26 19:07:50;;;;;;;13.77;10.77;;;7.90;99.90;;;8.51;100.00;98411.91;10417511;28;20237;-69
2023/12/26 19:12:55;;;;;;;12.87;8.60;;;7.90;99.90;;;8.48;100.00;98404.03;10420954;28;20714;-69
2023/12/26 19:17:58;;;;;;;7.60;6.90;;;7.90;99.90;;;8.50;100.00;98409.25;10411276;28;20260;-69
2023/12/26 19:23:02;;;;;;;10.57;6.10;;;7.90;99.90;;;8.51;100.00;98409.34;10406361;28;20278;-68
2023/12/26 19:28:07;;;;;;;6.67;5.97;;;7.80;99.90;;;8.45;100.00;98401.28;10413775;28;20229;-69
2023/12/26 19:33:10;;;;;;;7.10;5.50;;;7.80;99.90;;;8.46;100.00;98374.13;10488658;28;20231;-69
2023/12/26 19:38:15;;;;;;;6.53;5.20;;;7.80;99.90;;;8.47;100.00;98371.72;10484950;28;20616;-69
2023/12/26 19:43:19;;;;;;;7.10;6.50;;;7.80;99.90;;;8.37;100.00;98384.50;10493578;28;20334;-69
2023/12/26 19:48:22;;;;;;;5.80;5.30;;;7.80;99.90;;;8.27;100.00;98393.13;10489205;28;20232;-69
2023/12/26 19:53:26;;;;;;;6.63;5.97;;;7.70;99.90;;;8.30;100.00;98415.38;10439543;28;20247;-69
2023/12/26 19:58:30;;;;;;;7.63;6.27;;;7.70;99.90;;;8.35;100.00;98414.06;10437502;28;20625;-69
2023/12/26 20:03:34;;;;;;;6.07;5.00;;;7.70;99.90;;;8.49;100.00;98426.19;10446863;28;20231;-70
2023/12/26 20:08:37;;;;;;;5.60;4.90;;;7.80;99.90;;;8.43;100.00;98423.19;10482899;28;20224;-70
2023/12/26 20:13:44;;;;;;;8.23;6.00;;;7.80;99.90;;;8.43;100.00;98432.50;10483366;28;20227;-68
2023/12/26 20:18:49;;;;;;;4.73;4.30;;;7.70;99.90;;;8.36;100.00;98433.69;10437174;28;20236;-69
2023/12/26 20:23:52;;;;;;;4.33;4.00;;;7.70;99.90;;;8.40;100.00;98445.00;10454847;28;20351;-69
2023/12/26 20:28:57;;;;;;;7.00;5.40;;;7.80;99.90;;;8.38;100.00;98447.38;10489190;28;20619;-68
2023/12/26 20:34:00;;;;;;;6.03;4.70;;;7.70;99.90;;;8.44;100.00;98455.56;10488304;28;20228;-68
2023/12/26 20:39:04;;;;;;;7.03;4.88;;;7.70;99.90;;;8.37;100.00;98460.91;10482351;28;20714;-69
2023/12/26 20:44:08;;;;;;;71.20;41.00;;;7.70;99.90;;;8.27;100.00;98472.06;10489718;28;20682;-69
2023/12/26 20:49:12;;;;;;;45.80;28.10;;;7.60;99.90;;;8.30;100.00;98468.88;10478871;28;20251;-68
2023/12/26 20:54:17;;;;;;;21.60;16.47;;;7.70;99.90;;;8.30;100.00;98469.75;10481010;28;20273;-69
2023/12/26 20:59:21;;;;;;;12.23;10.00;;;7.70;99.90;;;8.31;100.00;98476.63;10487109;28;20256;-69
2023/12/26 21:04:25;;;;;;;10.40;9.30;;;7.60;99.90;;;8.35;100.00;98480.28;10475254;28;20256;-69
2023/12/26 21:09:28;;;;;;;6.70;5.73;;;7.60;99.90;;;8.32;100.00;98487.69;10442423;28;20259;-69
2023/12/26 21:14:33;;;;;;;6.50;5.37;;;7.60;99.90;;;8.30;100.00;98489.25;10480536;28;20224;-68
2023/12/26 21:19:38;;;;;;;5.80;5.07;;;7.60;99.90;;;8.28;100.00;98496.75;10462068;28;20726;-69
2023/12/26 21:24:42;;;;;;;6.10;5.53;;;7.60;99.90;;;8.22;100.00;98496.28;10415007;28;20781;-70